Time;durP1;ratioP1;P1;durP2;ratioP2;P2;SDS_P1;SDS_P2;PMS_P1;PMS_P2;Temp;Humidity;BMP_temperature;BMP_pressure;BME280_temperature;BME280_humidity;BME280_pressure;Samples;Min_cycle;Max_cycle;Signal;HPM_P1;HPM_P2
2023/08/15 00:00:28;;;;;;;6.80;6.00;;;;;21.50;100810.00;;;;5040766;28;20252;-68
2023/08/15 00:03:16;;;;;;;8.50;6.67;;;;;21.50;100804.00;;;;5041009;28;20960;-68
2023/08/15 00:06:03;;;;;;;7.37;6.47;;;;;21.50;100805.00;;;;5043590;28;20654;-68
2023/08/15 00:08:53;;;;;;;11.47;6.73;;;;;21.50;100808.00;;;;5040335;28;20267;-68
2023/08/15 00:11:39;;;;;;;9.90;6.33;;;;;21.40;100809.00;;;;5023785;28;20335;-69
2023/08/15 00:14:26;;;;;;;9.57;6.60;;;;;21.40;100811.00;;;;5037254;28;20336;-68
2023/08/15 00:17:13;;;;;;;9.10;6.63;;;;;21.40;100817.00;;;;5031040;28;20232;-68
2023/08/15 00:20:00;;;;;;;9.20;6.07;;;;;21.30;100810.00;;;;5020962;28;20606;-68
2023/08/15 00:22:47;;;;;;;9.37;6.47;;;;;21.30;100811.00;;;;5026629;28;20240;-68
2023/08/15 00:25:33;;;;;;;8.60;6.67;;;;;21.30;100804.00;;;;5023462;28;20233;-68
2023/08/15 00:28:20;;;;;;;8.40;6.60;;;;;21.20;100797.00;;;;5036368;28;20249;-68
2023/08/15 00:31:07;;;;;;;7.37;6.50;;;;;21.20;100791.00;;;;5026317;28;20757;-68
2023/08/15 00:33:53;;;;;;;9.00;7.50;;;;;21.10;100787.00;;;;5011789;28;20228;-68
2023/08/15 00:36:41;;;;;;;9.77;6.70;;;;;21.10;100785.00;;;;5024265;28;20371;-68
2023/08/15 00:39:27;;;;;;;11.47;6.83;;;;;21.00;100791.00;;;;5019296;28;20387;-68
2023/08/15 00:42:14;;;;;;;9.17;6.33;;;;;21.00;100788.00;;;;5021054;28;20343;-68
2023/08/15 00:45:01;;;;;;;9.23;6.73;;;;;21.00;100786.00;;;;5027329;28;20713;-68
2023/08/15 00:47:47;;;;;;;9.07;6.77;;;;;21.00;100787.00;;;;5026067;28;20774;-68
2023/08/15 00:50:34;;;;;;;10.63;7.00;;;;;20.90;100789.00;;;;5029716;28;20748;-67
2023/08/15 00:53:23;;;;;;;7.40;6.60;;;;;20.90;100781.00;;;;5038384;28;20378;-68
2023/08/15 00:56:10;;;;;;;7.50;6.27;;;;;20.90;100788.00;;;;5020133;28;20376;-68
2023/08/15 00:58:56;;;;;;;10.73;6.90;;;;;20.90;100785.00;;;;5024554;28;20263;-68
2023/08/15 01:01:43;;;;;;;11.10;6.97;;;;;20.90;100783.00;;;;5025458;28;20239;-67
2023/08/15 01:04:31;;;;;;;9.43;7.33;;;;;20.80;100776.00;;;;5023034;28;20779;-67
2023/08/15 01:07:18;;;;;;;9.70;6.90;;;;;20.90;100774.00;;;;5019327;28;20227;-68
2023/08/15 01:10:08;;;;;;;8.47;7.17;;;;;20.80;100786.00;;;;5026408;28;20235;-68
2023/08/15 01:13:02;;;;;;;7.70;6.90;;;;;20.80;100773.00;;;;5023747;28;20244;-67
2023/08/15 01:15:51;;;;;;;10.40;6.83;;;;;20.70;100772.00;;;;5025103;28;20235;-68
2023/08/15 01:18:42;;;;;;;9.33;6.90;;;;;20.70;100771.00;;;;5023373;28;20247;-68
2023/08/15 01:21:33;;;;;;;9.13;7.30;;;;;20.70;100767.00;;;;5023802;28;20877;-67
2023/08/15 01:24:21;;;;;;;7.70;6.60;;;;;20.60;100762.00;;;;5024204;28;20249;-67
2023/08/15 01:27:08;;;;;;;9.00;6.50;;;;;20.60;100760.00;;;;5021084;28;20251;-68
2023/08/15 01:29:56;;;;;;;10.90;6.67;;;;;20.60;100760.00;;;;5026802;28;20281;-66
2023/08/15 01:32:49;;;;;;;10.20;6.70;;;;;20.60;100756.00;;;;5024806;28;20253;-68
2023/08/15 01:35:39;;;;;;;10.23;6.87;;;;;20.50;100749.00;;;;5041884;28;20235;-68
2023/08/15 01:38:30;;;;;;;8.97;6.50;;;;;20.50;100747.00;;;;5034975;28;20296;-67
2023/08/15 01:41:20;;;;;;;11.43;7.00;;;;;20.50;100745.00;;;;5028858;28;21030;-68
2023/08/15 01:44:08;;;;;;;8.33;6.67;;;;;20.40;100747.00;;;;5026699;28;20350;-68
2023/08/15 01:46:54;;;;;;;13.77;7.00;;;;;20.40;100746.00;;;;5023612;28;20243;-68
2023/08/15 01:49:40;;;;;;;10.80;6.90;;;;;20.30;100744.00;;;;5035024;28;20237;-68
2023/08/15 01:52:27;;;;;;;7.70;6.90;;;;;20.30;100730.00;;;;5033841;28;20255;-67
2023/08/15 01:55:13;;;;;;;10.47;7.10;;;;;20.30;100734.00;;;;5025309;28;20235;-68
2023/08/15 01:58:02;;;;;;;9.03;7.23;;;;;20.30;100729.00;;;;5023323;28;20803;-68
2023/08/15 02:00:49;;;;;;;9.13;6.80;;;;;20.30;100725.00;;;;5025057;28;20227;-66
2023/08/15 02:03:35;;;;;;;7.80;6.70;;;;;20.20;100728.00;;;;5027682;28;20230;-66
2023/08/15 02:06:22;;;;;;;10.20;6.77;;;;;20.20;100725.00;;;;5025999;28;20241;-68
2023/08/15 02:09:08;;;;;;;11.67;7.40;;;;;20.20;100731.00;;;;5030145;28;20650;-68
2023/08/15 02:11:55;;;;;;;9.00;6.70;;;;;20.20;100735.00;;;;5014953;28;20361;-68
2023/08/15 02:14:43;;;;;;;9.50;7.47;;;;;20.20;100749.00;;;;5022126;28;20232;-68
2023/08/15 02:17:29;;;;;;;10.33;6.90;;;;;20.30;100736.00;;;;5024393;28;20231;-67
2023/08/15 02:20:16;;;;;;;8.70;7.10;;;;;20.30;100737.00;;;;5020259;28;20242;-68
2023/08/15 02:23:03;;;;;;;10.53;7.20;;;;;20.30;100735.00;;;;5014985;28;20284;-68
2023/08/15 02:25:49;;;;;;;13.13;7.53;;;;;20.20;100748.00;;;;5028214;28;20281;-68
2023/08/15 02:28:37;;;;;;;8.00;6.57;;;;;20.20;100746.00;;;;5031571;28;20606;-68
2023/08/15 02:31:27;;;;;;;7.87;7.07;;;;;20.20;100751.00;;;;5029635;28;20312;-67
2023/08/15 02:34:14;;;;;;;9.47;7.40;;;;;20.20;100772.00;;;;5022909;28;20610;-67
2023/08/15 02:37:00;;;;;;;11.47;7.30;;;;;20.20;100781.00;;;;5020151;28;20226;-68
2023/08/15 02:39:46;;;;;;;12.20;7.07;;;;;20.30;100781.00;;;;5035701;28;20344;-68
2023/08/15 02:42:33;;;;;;;8.90;7.63;;;;;20.30;100779.00;;;;5037137;28;20258;-67
2023/08/15 02:45:19;;;;;;;11.17;7.47;;;;;20.30;100775.00;;;;5027516;28;20234;-67
2023/08/15 02:48:08;;;;;;;9.17;7.47;;;;;20.40;100774.00;;;;5014697;28;20378;-68
2023/08/15 02:50:54;;;;;;;8.93;7.63;;;;;20.40;100770.00;;;;5007460;28;20254;-68
2023/08/15 02:53:41;;;;;;;8.50;7.23;;;;;20.40;100769.00;;;;5016677;28;20234;-68
2023/08/15 02:56:27;;;;;;;12.20;8.40;;;;;20.50;100762.00;;;;5034924;28;20786;-68
2023/08/15 02:59:32;;;;;;;9.93;7.80;;;;;20.50;100756.00;;;;5020714;28;20608;-67
2023/08/15 03:02:18;;;;;;;12.23;8.50;;;;;20.50;100752.00;;;;5021783;28;20228;-67
2023/08/15 03:05:07;;;;;;;10.80;7.80;;;;;20.50;100742.00;;;;5018557;28;20230;-68
2023/08/15 03:07:54;;;;;;;11.20;8.27;;;;;20.50;100734.00;;;;5042666;28;20238;-67
2023/08/15 03:10:42;;;;;;;13.97;8.10;;;;;20.50;100740.00;;;;5054308;28;20237;-68
2023/08/15 03:13:29;;;;;;;10.40;7.57;;;;;20.50;100735.00;;;;5020318;28;20231;-68
2023/08/15 03:16:15;;;;;;;10.27;7.73;;;;;20.50;100735.00;;;;5021106;28;20255;-67
2023/08/15 03:19:02;;;;;;;10.07;8.50;;;;;20.50;100733.00;;;;5021456;28;20254;-68
2023/08/15 03:21:49;;;;;;;9.40;8.33;;;;;20.50;100735.00;;;;5024948;28;20259;-68
2023/08/15 03:24:36;;;;;;;9.50;8.00;;;;;20.50;100736.00;;;;5024876;28;20273;-68
2023/08/15 03:27:23;;;;;;;9.63;7.60;;;;;20.60;100738.00;;;;5019315;28;20229;-68
2023/08/15 03:30:11;;;;;;;11.30;8.37;;;;;20.60;100735.00;;;;5024611;28;20235;-67
2023/08/15 03:32:57;;;;;;;10.60;7.60;;;;;20.60;100723.00;;;;5023834;28;20774;-68
2023/08/15 03:35:47;;;;;;;10.07;7.73;;;;;20.60;100727.00;;;;5034652;28;20232;-68
2023/08/15 03:38:35;;;;;;;11.20;7.97;;;;;20.70;100720.00;;;;5032801;28;20328;-66
2023/08/15 03:41:21;;;;;;;11.63;7.97;;;;;20.70;100734.00;;;;5020809;28;20235;-68
2023/08/15 03:44:08;;;;;;;12.30;7.73;;;;;20.70;100738.00;;;;5024425;28;20693;-68
2023/08/15 03:46:55;;;;;;;14.87;8.43;;;;;20.70;100745.00;;;;5024870;28;20256;-68
2023/08/15 03:49:41;;;;;;;11.67;8.60;;;;;20.70;100747.00;;;;5019997;28;20242;-68
2023/08/15 03:52:28;;;;;;;11.43;8.00;;;;;20.70;100749.00;;;;5024765;28;20240;-66
2023/08/15 03:55:16;;;;;;;10.13;8.03;;;;;20.80;100735.00;;;;5017410;28;20243;-66
2023/08/15 03:58:02;;;;;;;8.43;7.63;;;;;20.80;100721.00;;;;5015524;28;20868;-68
2023/08/15 04:00:49;;;;;;;9.77;7.70;;;;;20.80;100715.00;;;;5024385;28;20599;-67
2023/08/15 04:03:35;;;;;;;13.73;9.07;;;;;20.90;100690.00;;;;5024656;28;20235;-68
2023/08/15 04:06:22;;;;;;;11.20;9.17;;;;;20.90;100697.00;;;;5025920;28;20244;-66
2023/08/15 04:09:09;;;;;;;11.87;8.80;;;;;21.00;100693.00;;;;5018567;28;20223;-68
2023/08/15 04:11:56;;;;;;;11.93;8.53;;;;;21.00;100713.00;;;;5032999;28;20239;-67
2023/08/15 04:14:43;;;;;;;12.07;9.43;;;;;21.00;100712.00;;;;5029097;28;20776;-67
2023/08/15 04:17:29;;;;;;;11.00;9.47;;;;;21.10;100711.00;;;;5037547;28;20598;-68
2023/08/15 04:20:16;;;;;;;12.73;8.80;;;;;21.10;100717.00;;;;5031443;28;20239;-68
2023/08/15 04:23:02;;;;;;;10.87;7.90;;;;;21.10;100733.00;;;;5028455;28;20242;-68
2023/08/15 04:25:49;;;;;;;10.63;8.93;;;;;21.10;100743.00;;;;5036324;28;20290;-68
2023/08/15 04:28:38;;;;;;;9.77;8.20;;;;;21.00;100778.00;;;;5021340;28;20256;-67
2023/08/15 04:31:24;;;;;;;13.23;7.90;;;;;21.00;100797.00;;;;5019891;28;20726;-66
2023/08/15 04:34:11;;;;;;;13.20;8.27;;;;;21.00;100809.00;;;;5028879;28;20242;-67
2023/08/15 04:36:57;;;;;;;13.87;9.53;;;;;21.10;100827.00;;;;5026181;28;20240;-67
2023/08/15 04:39:44;;;;;;;15.73;9.50;;;;;21.10;100835.00;;;;5022579;28;20721;-68
2023/08/15 04:42:31;;;;;;;14.53;10.33;;;;;21.20;100849.00;;;;5021343;28;20322;-67
2023/08/15 04:45:18;;;;;;;13.90;10.33;;;;;21.20;100875.00;;;;5028998;28;20244;-66
2023/08/15 04:48:06;;;;;;;16.00;9.40;;;;;21.20;100892.00;;;;5026550;28;20254;-68
2023/08/15 04:50:52;;;;;;;12.73;8.60;;;;;21.20;100890.00;;;;5013483;28;20251;-68
2023/08/15 04:53:39;;;;;;;12.60;9.50;;;;;21.20;100891.00;;;;5019192;28;20365;-68
2023/08/15 04:56:25;;;;;;;17.90;10.60;;;;;21.30;100890.00;;;;5013242;28;20623;-68
2023/08/15 04:59:12;;;;;;;15.37;10.93;;;;;21.40;100892.00;;;;5024427;28;20588;-68
2023/08/15 05:02:00;;;;;;;17.10;11.70;;;;;21.50;100889.00;;;;5025761;28;20225;-68
2023/08/15 05:04:46;;;;;;;16.07;10.70;;;;;21.50;100882.00;;;;5026551;28;20245;-67
2023/08/15 05:07:33;;;;;;;14.37;10.97;;;;;21.60;100878.00;;;;5026188;28;20224;-68
2023/08/15 05:10:19;;;;;;;17.93;11.33;;;;;21.60;100873.00;;;;5020548;28;20244;-67
2023/08/15 05:13:05;;;;;;;15.43;10.47;;;;;21.60;100899.00;;;;5035145;28;20270;-68
2023/08/15 05:15:52;;;;;;;14.73;10.20;;;;;21.60;100891.00;;;;5031680;28;20254;-68
2023/08/15 05:18:40;;;;;;;14.67;10.03;;;;;21.60;100895.00;;;;5039380;28;20243;-68
2023/08/15 05:21:28;;;;;;;15.53;9.87;;;;;21.70;100891.00;;;;5027772;28;20236;-68
2023/08/15 05:24:14;;;;;;;15.07;9.83;;;;;21.70;100893.00;;;;5023846;28;20255;-69
2023/08/15 05:27:01;;;;;;;14.80;9.53;;;;;21.70;100894.00;;;;5025226;28;20310;-68
2023/08/15 05:29:48;;;;;;;12.23;9.10;;;;;21.70;100887.00;;;;5026133;28;20787;-68
2023/08/15 05:32:35;;;;;;;17.43;9.70;;;;;21.70;100888.00;;;;5025397;28;20239;-68
2023/08/15 05:35:23;;;;;;;12.63;8.77;;;;;21.70;100898.00;;;;5023251;28;20244;-67
2023/08/15 05:38:10;;;;;;;15.00;9.77;;;;;21.70;100890.00;;;;5035633;28;20358;-68
2023/08/15 05:40:56;;;;;;;13.67;9.63;;;;;21.70;100889.00;;;;5028313;28;20324;-68
2023/08/15 05:43:42;;;;;;;13.63;9.80;;;;;21.70;100881.00;;;;5024993;28;21019;-68
2023/08/15 05:46:29;;;;;;;14.07;9.10;;;;;21.60;100883.00;;;;5029713;28;20235;-68
2023/08/15 05:49:15;;;;;;;12.67;8.90;;;;;21.60;100883.00;;;;5024331;28;20303;-67
2023/08/15 05:52:04;;;;;;;11.37;9.23;;;;;21.60;100895.00;;;;5021742;28;20240;-68
2023/08/15 05:54:50;;;;;;;12.83;9.23;;;;;21.60;100885.00;;;;5028977;28;20738;-67
2023/08/15 05:57:37;;;;;;;11.20;8.57;;;;;21.60;100901.00;;;;5023111;28;20237;-68
2023/08/15 06:00:24;;;;;;;12.57;8.90;;;;;21.70;100908.00;;;;5016009;28;20233;-68
2023/08/15 06:03:11;;;;;;;14.03;10.13;;;;;21.70;100901.00;;;;5022273;28;20235;-68
2023/08/15 06:05:58;;;;;;;14.80;9.40;;;;;21.70;100906.00;;;;5022263;28;20244;-69
2023/08/15 06:08:45;;;;;;;11.17;9.07;;;;;21.80;100901.00;;;;5014035;28;20236;-68
2023/08/15 06:11:34;;;;;;;11.27;8.60;;;;;21.80;100905.00;;;;5019929;28;20379;-67
2023/08/15 06:14:21;;;;;;;14.27;8.37;;;;;21.90;100906.00;;;;5025895;28;20353;-67
2023/08/15 06:17:08;;;;;;;11.73;8.67;;;;;21.90;100894.00;;;;5016539;28;20240;-69
2023/08/15 06:19:54;;;;;;;12.70;9.00;;;;;21.90;100901.00;;;;5018884;28;20252;-68
2023/08/15 06:22:41;;;;;;;13.37;8.93;;;;;22.00;100904.00;;;;5028275;28;20240;-69
2023/08/15 06:25:29;;;;;;;13.37;8.57;;;;;22.10;100912.00;;;;5031820;28;20248;-68
2023/08/15 06:28:17;;;;;;;13.50;9.73;;;;;22.10;100917.00;;;;5027965;28;20283;-69
2023/08/15 06:31:04;;;;;;;14.53;9.50;;;;;22.10;100920.00;;;;5025300;28;20240;-68
2023/08/15 06:33:50;;;;;;;12.40;9.47;;;;;22.10;100923.00;;;;5024661;28;20275;-67
2023/08/15 06:36:36;;;;;;;14.87;9.90;;;;;22.10;100928.00;;;;5020625;28;20288;-68
2023/08/15 06:39:23;;;;;;;13.50;10.03;;;;;22.10;100937.00;;;;5022229;28;20232;-67
2023/08/15 06:42:11;;;;;;;15.57;10.50;;;;;22.30;100932.00;;;;5043921;28;20336;-67
2023/08/15 06:45:11;;;;;;;17.10;10.07;;;;;22.40;100930.00;;;;5033001;28;20233;-68
2023/08/15 06:47:57;;;;;;;15.40;10.30;;;;;22.60;100934.00;;;;5030606;28;20233;-68
2023/08/15 06:50:44;;;;;;;15.70;9.60;;;;;22.70;100934.00;;;;5021289;28;20241;-68
2023/08/15 06:53:32;;;;;;;20.30;10.30;;;;;22.80;100942.00;;;;5027753;28;20229;-68
2023/08/15 06:56:19;;;;;;;14.77;9.80;;;;;22.90;100946.00;;;;5026770;28;20604;-68
2023/08/15 06:59:08;;;;;;;15.27;9.80;;;;;22.90;100944.00;;;;5024865;28;20283;-68
2023/08/15 07:01:54;;;;;;;14.17;8.67;;;;;22.70;100936.00;;;;5016209;28;20427;-68
2023/08/15 07:04:41;;;;;;;13.30;8.13;;;;;22.60;100941.00;;;;5020516;28;20229;-67
2023/08/15 07:07:28;;;;;;;10.83;8.33;;;;;22.60;100942.00;;;;5018599;28;20323;-67
2023/08/15 07:10:14;;;;;;;10.23;7.33;;;;;22.50;100954.00;;;;5024514;28;20225;-66
2023/08/15 07:13:00;;;;;;;11.33;6.57;;;;;22.60;100944.00;;;;5024666;28;20886;-68
2023/08/15 07:15:53;;;;;;;11.87;6.80;;;;;22.60;100934.00;;;;5025281;28;20237;-67
2023/08/15 07:18:40;;;;;;;13.47;7.10;;;;;22.70;100932.00;;;;5024774;28;20791;-69
2023/08/15 07:21:26;;;;;;;11.83;7.23;;;;;22.70;100934.00;;;;5022749;28;20287;-68
2023/08/15 07:24:12;;;;;;;13.60;7.83;;;;;22.70;100925.00;;;;5022807;28;20810;-67
2023/08/15 07:26:59;;;;;;;12.17;7.37;;;;;22.70;100931.00;;;;5023418;28;20268;-69
2023/08/15 07:29:45;;;;;;;10.70;7.47;;;;;22.70;100939.00;;;;5023877;28;20309;-69
2023/08/15 07:32:36;;;;;;;10.83;7.17;;;;;22.70;100955.00;;;;5019367;28;20232;-67
2023/08/15 07:35:23;;;;;;;12.97;7.50;;;;;22.70;100949.00;;;;5032668;28;20961;-68
2023/08/15 07:38:09;;;;;;;10.80;6.53;;;;;22.60;100957.00;;;;5027416;28;20222;-67
2023/08/15 07:40:56;;;;;;;12.17;6.43;;;;;22.60;100955.00;;;;5021934;28;20233;-68
2023/08/15 07:43:43;;;;;;;9.43;6.17;;;;;22.60;100949.00;;;;5023558;28;20332;-66
2023/08/15 07:46:29;;;;;;;10.50;6.23;;;;;22.60;100948.00;;;;5022038;28;20279;-68
2023/08/15 07:49:17;;;;;;;12.23;6.43;;;;;22.60;100954.00;;;;5021371;28;20362;-67
2023/08/15 07:52:04;;;;;;;12.73;6.60;;;;;22.70;100961.00;;;;5019549;28;20698;-66
2023/08/15 07:54:53;;;;;;;7.90;6.10;;;;;22.80;100968.00;;;;5019421;28;20311;-67
2023/08/15 07:57:39;;;;;;;9.17;5.70;;;;;22.90;100981.00;;;;5013276;28;20242;-66
2023/08/15 08:00:26;;;;;;;10.67;5.40;;;;;22.80;100964.00;;;;5036033;28;20233;-67
2023/08/15 08:03:13;;;;;;;8.70;4.80;;;;;22.80;100976.00;;;;5030792;28;20233;-66
2023/08/15 08:06:01;;;;;;;8.77;4.63;;;;;22.80;100979.00;;;;5029884;28;20347;-68
2023/08/15 08:08:54;;;;;;;8.67;4.23;;;;;22.90;100980.00;;;;5025848;28;20260;-67
2023/08/15 08:11:40;;;;;;;10.30;4.40;;;;;23.00;100988.00;;;;5032071;28;20241;-67
2023/08/15 08:14:26;;;;;;;7.00;3.93;;;;;23.00;100993.00;;;;5029794;28;20698;-67
2023/08/15 08:17:13;;;;;;;8.43;3.20;;;;;23.20;100995.00;;;;5023018;28;20246;-67
2023/08/15 08:20:00;;;;;;;7.20;3.67;;;;;23.20;101002.00;;;;5022414;28;20232;-68
2023/08/15 08:22:48;;;;;;;8.53;2.83;;;;;23.40;101001.00;;;;5019182;28;20225;-68
2023/08/15 08:25:34;;;;;;;9.73;3.63;;;;;23.60;100999.00;;;;5028444;28;20225;-68
2023/08/15 08:28:21;;;;;;;5.33;2.60;;;;;23.70;100995.00;;;;5022323;28;20296;-66
2023/08/15 08:31:08;;;;;;;4.90;2.80;;;;;23.90;101006.00;;;;5033193;28;20810;-68
2023/08/15 08:33:54;;;;;;;4.23;2.77;;;;;23.90;101014.00;;;;5029041;28;20277;-68
2023/08/15 08:36:41;;;;;;;5.50;2.80;;;;;24.00;101015.00;;;;5030535;28;20902;-68
2023/08/15 08:39:28;;;;;;;4.10;2.53;;;;;24.20;101011.00;;;;5027957;28;20232;-68
2023/08/15 08:42:18;;;;;;;4.77;2.60;;;;;24.40;101016.00;;;;5029542;28;20783;-68
2023/08/15 08:45:07;;;;;;;5.50;2.33;;;;;24.40;101025.00;;;;5039301;28;20585;-67
2023/08/15 08:47:55;;;;;;;4.67;2.20;;;;;24.30;101019.00;;;;5032098;28;20232;-67
2023/08/15 08:50:42;;;;;;;2.87;2.23;;;;;24.20;101027.00;;;;5026573;28;20230;-68
2023/08/15 08:53:29;;;;;;;5.40;2.40;;;;;24.30;101025.00;;;;5016279;28;20229;-68
2023/08/15 08:56:18;;;;;;;3.63;2.10;;;;;24.30;101035.00;;;;5027992;28;20238;-69
2023/08/15 08:59:06;;;;;;;3.47;2.10;;;;;24.30;101033.00;;;;5023479;28;20233;-68
2023/08/15 09:01:54;;;;;;;3.83;2.00;;;;;24.40;101033.00;;;;5019935;28;20225;-66
2023/08/15 09:04:41;;;;;;;3.75;1.80;;;;;24.50;101031.00;;;;5022528;28;20361;-66
2023/08/15 09:07:28;;;;;;;3.40;1.80;;;;;24.70;101033.00;;;;5032774;28;20229;-69
2023/08/15 09:10:14;;;;;;;1.70;1.40;;;;;24.70;101036.00;;;;5027371;28;20229;-68
2023/08/15 09:13:03;;;;;;;2.43;1.40;;;;;24.80;101028.00;;;;5023890;28;20237;-68
2023/08/15 09:15:50;;;;;;;2.03;1.13;;;;;24.90;101030.00;;;;5022766;28;20229;-66
2023/08/15 09:18:37;;;;;;;2.03;1.40;;;;;24.90;101022.00;;;;5026105;28;20273;-66
2023/08/15 09:21:27;;;;;;;1.85;1.40;;;;;25.00;101025.00;;;;5020961;28;20217;-66
2023/08/15 09:24:14;;;;;;;1.90;1.33;;;;;25.10;101031.00;;;;5018182;28;20230;-67
2023/08/15 09:27:05;;;;;;;2.33;1.42;;;;;25.10;101039.00;;;;5030890;28;20234;-66
2023/08/15 09:29:54;;;;;;;1.30;1.20;;;;;25.20;101040.00;;;;5038265;28;20725;-65
2023/08/15 09:32:40;;;;;;;1.60;1.20;;;;;25.10;101038.00;;;;5027286;28;20299;-67
2023/08/15 09:35:31;;;;;;;1.48;1.00;;;;;25.30;101029.00;;;;5023204;28;20312;-67
2023/08/15 09:38:19;;;;;;;2.00;1.20;;;;;25.40;101033.00;;;;5020643;28;20249;-66
2023/08/15 09:41:07;;;;;;;1.48;1.00;;;;;25.50;101030.00;;;;5034028;28;20244;-66
2023/08/15 09:43:54;;;;;;;1.95;1.10;;;;;25.50;101040.00;;;;5034550;28;20239;-65
2023/08/15 09:46:44;;;;;;;1.42;1.25;;;;;25.60;101049.00;;;;5023645;28;20248;-67
2023/08/15 09:49:32;;;;;;;2.17;1.15;;;;;25.60;101046.00;;;;5023443;28;20230;-67
2023/08/15 09:52:20;;;;;;;3.78;0.93;;;;;25.60;101045.00;;;;5025674;28;20711;-66
2023/08/15 09:55:09;;;;;;;1.73;0.98;;;;;25.70;101063.00;;;;5022488;28;20306;-67
2023/08/15 09:57:57;;;;;;;1.25;1.10;;;;;26.00;101061.00;;;;5015135;28;20245;-68
2023/08/15 10:00:44;;;;;;;2.33;1.20;;;;;26.00;101066.00;;;;5028411;28;20743;-68
2023/08/15 10:03:36;;;;;;;1.15;0.95;;;;;26.00;101068.00;;;;5023687;28;20300;-68
2023/08/15 10:06:23;;;;;;;1.52;1.10;;;;;26.10;101075.00;;;;5029779;28;20234;-67
2023/08/15 10:09:11;;;;;;;1.33;1.23;;;;;26.10;101069.00;;;;5021150;28;20623;-68
2023/08/15 10:11:59;;;;;;;2.15;1.20;;;;;26.20;101084.00;;;;5023631;28;20233;-67
2023/08/15 10:14:47;;;;;;;2.25;1.08;;;;;26.30;101084.00;;;;5027966;28;20233;-66
2023/08/15 10:17:34;;;;;;;1.50;1.27;;;;;26.40;101080.00;;;;5025685;28;21633;-67
2023/08/15 10:20:22;;;;;;;1.65;1.20;;;;;26.50;101075.00;;;;5024981;28;20725;-65
2023/08/15 10:23:09;;;;;;;1.45;1.17;;;;;26.70;101081.00;;;;5024044;28;20288;-66
2023/08/15 10:25:56;;;;;;;2.50;1.05;;;;;26.60;101080.00;;;;5041149;28;20232;-68
2023/08/15 10:28:46;;;;;;;2.05;1.20;;;;;26.60;101082.00;;;;5026097;28;20224;-68
2023/08/15 10:31:36;;;;;;;3.60;1.38;;;;;26.80;101083.00;;;;5024967;28;20327;-65
2023/08/15 10:34:23;;;;;;;1.45;1.20;;;;;27.00;101091.00;;;;5028555;28;20332;-66
2023/08/15 10:37:33;;;;;;;2.72;1.38;;;;;27.00;101090.00;;;;4965165;28;20238;-68
2023/08/15 10:40:20;;;;;;;2.13;1.58;;;;;27.10;101088.00;;;;5039445;28;20233;-67
2023/08/15 10:43:11;;;;;;;2.10;1.58;;;;;27.20;101092.00;;;;5019821;28;20320;-66
2023/08/15 10:46:00;;;;;;;3.13;1.80;;;;;27.40;101101.00;;;;5029211;28;20233;-67
2023/08/15 10:48:49;;;;;;;1.88;1.30;;;;;27.50;101099.00;;;;5026049;28;20229;-66
2023/08/15 10:51:49;;;;;;;2.40;1.30;;;;;27.60;101102.00;;;;5018754;28;20253;-67
2023/08/15 10:54:38;;;;;;;2.90;1.50;;;;;27.50;101090.00;;;;5013516;28;20607;-68
2023/08/15 10:57:24;;;;;;;2.00;1.48;;;;;27.50;101103.00;;;;5021770;28;20229;-68
2023/08/15 11:00:17;;;;;;;1.80;1.35;;;;;27.50;101112.00;;;;5025407;28;20233;-68
2023/08/15 11:03:05;;;;;;;2.72;1.77;;;;;27.40;101105.00;;;;5037750;28;20520;-69
2023/08/15 11:05:52;;;;;;;2.90;1.60;;;;;27.40;101118.00;;;;5043783;28;20240;-67
2023/08/15 11:08:43;;;;;;;3.90;1.83;;;;;27.30;101110.00;;;;5025785;28;20268;-69
2023/08/15 11:11:34;;;;;;;3.85;1.70;;;;;27.40;101105.00;;;;5010732;28;20221;-69
2023/08/15 11:14:21;;;;;;;2.95;1.73;;;;;27.80;101113.00;;;;5037289;28;20241;-68
2023/08/15 11:17:07;;;;;;;4.40;2.15;;;;;28.00;101116.00;;;;5033501;28;20602;-67
2023/08/15 11:19:54;;;;;;;2.50;2.00;;;;;28.00;101122.00;;;;5037616;28;20255;-68
2023/08/15 11:22:41;;;;;;;4.35;1.90;;;;;27.60;101114.00;;;;5022387;28;20272;-68
2023/08/15 11:25:28;;;;;;;3.22;2.13;;;;;27.10;101116.00;;;;5037613;28;20636;-67
2023/08/15 11:28:15;;;;;;;4.00;2.30;;;;;27.30;101118.00;;;;5032962;28;20295;-68
2023/08/15 11:31:04;;;;;;;4.40;2.40;;;;;27.60;101129.00;;;;5040912;28;20804;-69
2023/08/15 11:34:08;;;;;;;8.18;2.40;;;;;27.70;101132.00;;;;5039501;28;20236;-68
2023/08/15 11:36:55;;;;;;;5.15;2.30;;;;;27.80;101134.00;;;;5039100;28;20637;-68
2023/08/15 11:39:41;;;;;;;3.47;1.95;;;;;27.90;101140.00;;;;5043768;28;20721;-68
2023/08/15 11:42:28;;;;;;;4.05;2.35;;;;;27.80;101121.00;;;;5043877;28;20233;-69
2023/08/15 11:45:21;;;;;;;4.47;1.92;;;;;27.70;101131.00;;;;5036796;28;20303;-68
2023/08/15 11:48:09;;;;;;;4.57;1.80;;;;;27.70;101132.00;;;;5031400;28;20237;-69
2023/08/15 11:50:55;;;;;;;4.20;1.85;;;;;27.70;101130.00;;;;5029492;28;20633;-68
2023/08/15 11:53:49;;;;;;;3.95;1.92;;;;;27.60;101134.00;;;;5023476;28;20303;-67
2023/08/15 11:56:48;;;;;;;3.15;2.00;;;;;27.60;101146.00;;;;5021864;28;20467;-69
2023/08/15 11:59:35;;;;;;;4.35;2.10;;;;;27.50;101141.00;;;;5021532;28;20233;-69
2023/08/15 12:02:23;;;;;;;5.75;2.30;;;;;27.60;101142.00;;;;5023443;28;20292;-67
2023/08/15 12:05:14;;;;;;;4.35;2.08;;;;;27.70;101154.00;;;;5022773;28;20370;-68
2023/08/15 12:08:01;;;;;;;5.22;2.10;;;;;27.50;101146.00;;;;5018051;28;20244;-69
2023/08/15 12:10:48;;;;;;;3.72;2.05;;;;;27.80;101154.00;;;;5025531;28;20746;-69
2023/08/15 12:13:38;;;;;;;4.03;2.08;;;;;28.10;101141.00;;;;5020175;28;20345;-69
2023/08/15 12:16:24;;;;;;;5.03;1.95;;;;;28.20;101143.00;;;;5022389;28;20320;-69
2023/08/15 12:19:12;;;;;;;3.90;2.30;;;;;28.30;101137.00;;;;5020782;28;20721;-70
2023/08/15 12:21:59;;;;;;;4.45;1.90;;;;;28.50;101137.00;;;;5021712;28;20249;-70
2023/08/15 12:24:45;;;;;;;4.35;2.00;;;;;28.60;101136.00;;;;5015585;28;20269;-69
2023/08/15 12:27:32;;;;;;;3.67;1.92;;;;;28.70;101140.00;;;;5012320;28;20694;-69
2023/08/15 12:30:20;;;;;;;3.20;1.85;;;;;28.80;101141.00;;;;5020292;28;20241;-68
2023/08/15 12:33:06;;;;;;;3.45;1.80;;;;;29.00;101142.00;;;;5037953;28;20233;-67
2023/08/15 12:35:54;;;;;;;4.15;2.00;;;;;29.20;101152.00;;;;5023358;28;20252;-67
2023/08/15 12:38:42;;;;;;;1.92;1.70;;;;;29.30;101137.00;;;;5027161;28;20279;-66
2023/08/15 12:41:28;;;;;;;4.53;2.17;;;;;29.50;101136.00;;;;5025229;28;20229;-69
2023/08/15 12:44:15;;;;;;;3.97;2.10;;;;;29.50;101134.00;;;;5018658;28;20233;-67
2023/08/15 12:47:01;;;;;;;6.75;2.38;;;;;29.50;101138.00;;;;5027061;28;20300;-68
2023/08/15 12:49:48;;;;;;;5.78;2.08;;;;;29.40;101135.00;;;;5027928;28;20300;-68
2023/08/15 12:52:36;;;;;;;3.28;1.88;;;;;29.50;101141.00;;;;5024102;28;20229;-67
2023/08/15 12:55:23;;;;;;;4.15;2.17;;;;;29.60;101146.00;;;;5027576;28;20241;-70
2023/08/15 12:58:10;;;;;;;2.35;1.95;;;;;29.90;101145.00;;;;5031533;28;20237;-67
2023/08/15 13:00:56;;;;;;;3.95;2.20;;;;;30.00;101142.00;;;;5022963;28;20233;-66
2023/08/15 13:03:44;;;;;;;21.20;6.85;;;;;29.80;101150.00;;;;5039817;28;20231;-68
2023/08/15 13:06:31;;;;;;;6.03;2.80;;;;;29.50;101144.00;;;;5026397;28;20272;-67
2023/08/15 13:09:19;;;;;;;4.65;2.45;;;;;29.10;101148.00;;;;5028226;28;20229;-68
2023/08/15 13:12:06;;;;;;;6.95;2.58;;;;;28.90;101148.00;;;;5047216;28;20299;-67
2023/08/15 13:14:52;;;;;;;4.93;2.55;;;;;29.00;101148.00;;;;5033979;28;20298;-69
2023/08/15 13:17:39;;;;;;;5.05;2.30;;;;;29.00;101148.00;;;;5033361;28;20241;-67
2023/08/15 13:20:25;;;;;;;3.30;1.98;;;;;29.00;101146.00;;;;5018692;28;20264;-69
2023/08/15 13:23:12;;;;;;;5.82;2.55;;;;;29.00;101138.00;;;;5027237;28;20273;-67
2023/08/15 13:26:00;;;;;;;5.68;2.40;;;;;29.10;101148.00;;;;5022279;28;20295;-67
2023/08/15 13:28:47;;;;;;;4.32;2.28;;;;;29.20;101145.00;;;;5020880;28;20226;-67
2023/08/15 13:31:34;;;;;;;4.40;1.98;;;;;29.00;101145.00;;;;5026183;28;20237;-67
2023/08/15 13:34:22;;;;;;;5.30;2.30;;;;;28.80;101145.00;;;;5020714;28;20237;-67
2023/08/15 13:37:08;;;;;;;5.03;2.70;;;;;28.50;101151.00;;;;5024546;28;20311;-66
2023/08/15 13:39:57;;;;;;;4.72;2.10;;;;;28.00;101145.00;;;;5024358;28;20603;-68
2023/08/15 13:42:45;;;;;;;4.57;2.20;;;;;27.70;101148.00;;;;5029179;28;20232;-68